sensor_id;sensor_type;location;lat;lon;timestamp;P1;durP1;ratioP1;P2;durP2;ratioP2
16916;SDS011;8575;52.418;13.492;2022-07-05T00:00:19;1129.07;;;999.90;;
16916;SDS011;8575;52.418;13.492;2022-07-05T00:00:40;1125.15;;;999.90;;
16916;SDS011;8575;52.418;13.492;2022-07-05T00:01:02;1130.53;;;999.90;;
16916;SDS011;8575;52.418;13.492;2022-07-05T00:01:23;1130.95;;;999.90;;
16916;SDS011;8575;52.418;13.492;2022-07-05T00:01:46;1130.15;;;999.90;;
16916;SDS011;8575;52.418;13.492;2022-07-05T00:02:07;1128.03;;;999.90;;
16916;SDS011;8575;52.418;13.492;2022-07-05T00:02:28;1128.68;;;999.90;;
16916;SDS011;8575;52.418;13.492;2022-07-05T00:02:49;1129.00;;;999.90;;
16916;SDS011;8575;52.418;13.492;2022-07-05T00:03:10;1127.70;;;999.90;;
16916;SDS011;8575;52.418;13.492;2022-07-05T00:03:32;1126.57;;;999.90;;
16916;SDS011;8575;52.418;13.492;2022-07-05T00:03:54;1123.65;;;999.90;;
16916;SDS011;8575;52.418;13.492;2022-07-05T00:04:15;1124.97;;;999.90;;
16916;SDS011;8575;52.418;13.492;2022-07-05T00:04:37;1125.60;;;999.90;;
16916;SDS011;8575;52.418;13.492;2022-07-05T00:04:58;1123.72;;;999.90;;
16916;SDS011;8575;52.418;13.492;2022-07-05T00:05:19;1124.53;;;999.90;;
16916;SDS011;8575;52.418;13.492;2022-07-05T00:05:41;1123.88;;;999.90;;
16916;SDS011;8575;52.418;13.492;2022-07-05T00:06:02;1125.70;;;999.90;;
16916;SDS011;8575;52.418;13.492;2022-07-05T00:06:24;1124.25;;;999.90;;
16916;SDS011;8575;52.418;13.492;2022-07-05T00:06:45;1125.57;;;999.90;;
16916;SDS011;8575;52.418;13.492;2022-07-05T00:07:27;1122.13;;;999.90;;
16916;SDS011;8575;52.418;13.492;2022-07-05T00:07:53;1129.93;;;999.90;;
16916;SDS011;8575;52.418;13.492;2022-07-05T00:08:14;1122.80;;;999.90;;
16916;SDS011;8575;52.418;13.492;2022-07-05T00:08:36;1119.07;;;999.90;;
16916;SDS011;8575;52.418;13.492;2022-07-05T00:08:59;1119.07;;;999.90;;
16916;SDS011;8575;52.418;13.492;2022-07-05T00:09:20;1120.40;;;999.90;;
16916;SDS011;8575;52.418;13.492;2022-07-05T00:09:41;1119.93;;;999.90;;
16916;SDS011;8575;52.418;13.492;2022-07-05T00:10:03;1118.60;;;999.90;;
16916;SDS011;8575;52.418;13.492;2022-07-05T00:10:25;1114.78;;;999.90;;
16916;SDS011;8575;52.418;13.492;2022-07-05T00:10:46;1111.38;;;999.90;;
16916;SDS011;8575;52.418;13.492;2022-07-05T00:11:08;1111.20;;;999.90;;
16916;SDS011;8575;52.418;13.492;2022-07-05T00:11:30;1030.30;;;969.13;;
16916;SDS011;8575;52.418;13.492;2022-07-05T00:11:51;924.20;;;869.83;;
16916;SDS011;8575;52.418;13.492;2022-07-05T00:12:12;860.33;;;809.83;;
16916;SDS011;8575;52.418;13.492;2022-07-05T00:12:34;879.40;;;827.72;;
16916;SDS011;8575;52.418;13.492;2022-07-05T00:12:56;875.65;;;824.15;;
16916;SDS011;8575;52.418;13.492;2022-07-05T00:13:17;881.75;;;829.95;;
16916;SDS011;8575;52.418;13.492;2022-07-05T00:13:38;888.03;;;835.90;;
16916;SDS011;8575;52.418;13.492;2022-07-05T00:14:00;886.75;;;834.65;;
16916;SDS011;8575;52.418;13.492;2022-07-05T00:14:31;879.03;;;827.42;;
16916;SDS011;8575;52.418;13.492;2022-07-05T00:14:53;889.45;;;837.13;;
16916;SDS011;8575;52.418;13.492;2022-07-05T00:15:14;900.35;;;847.35;;
16916;SDS011;8575;52.418;13.492;2022-07-05T00:15:35;895.72;;;843.05;;
16916;SDS011;8575;52.418;13.492;2022-07-05T00:15:57;889.58;;;837.25;;
16916;SDS011;8575;52.418;13.492;2022-07-05T00:16:18;901.70;;;848.63;;
16916;SDS011;8575;52.418;13.492;2022-07-05T00:16:40;887.55;;;835.28;;
16916;SDS011;8575;52.418;13.492;2022-07-05T00:17:02;903.28;;;849.95;;
16916;SDS011;8575;52.418;13.492;2022-07-05T00:17:24;922.90;;;868.47;;
16916;SDS011;8575;52.418;13.492;2022-07-05T00:17:45;917.25;;;863.22;;
16916;SDS011;8575;52.418;13.492;2022-07-05T00:18:07;924.08;;;869.58;;
16916;SDS011;8575;52.418;13.492;2022-07-05T00:18:28;921.65;;;867.35;;
16916;SDS011;8575;52.418;13.492;2022-07-05T00:18:50;921.17;;;866.97;;
16916;SDS011;8575;52.418;13.492;2022-07-05T00:19:12;921.35;;;867.05;;
16916;SDS011;8575;52.418;13.492;2022-07-05T00:19:33;931.83;;;876.90;;
16916;SDS011;8575;52.418;13.492;2022-07-05T00:19:54;932.03;;;877.03;;
16916;SDS011;8575;52.418;13.492;2022-07-05T00:20:15;925.90;;;871.35;;
16916;SDS011;8575;52.418;13.492;2022-07-05T00:20:37;910.20;;;856.60;;
16916;SDS011;8575;52.418;13.492;2022-07-05T00:20:59;921.33;;;867.13;;
16916;SDS011;8575;52.418;13.492;2022-07-05T00:21:20;893.17;;;840.55;;
16916;SDS011;8575;52.418;13.492;2022-07-05T00:21:42;882.92;;;830.97;;
16916;SDS011;8575;52.418;13.492;2022-07-05T00:22:03;907.03;;;853.63;;
16916;SDS011;8575;52.418;13.492;2022-07-05T00:22:25;911.78;;;858.08;;
16916;SDS011;8575;52.418;13.492;2022-07-05T00:22:47;897.50;;;844.70;;
16916;SDS011;8575;52.418;13.492;2022-07-05T00:23:08;899.45;;;846.58;;
16916;SDS011;8575;52.418;13.492;2022-07-05T00:23:30;894.42;;;841.70;;
16916;SDS011;8575;52.418;13.492;2022-07-05T00:23:52;908.00;;;854.42;;
16916;SDS011;8575;52.418;13.492;2022-07-05T00:24:13;893.20;;;840.65;;
16916;SDS011;8575;52.418;13.492;2022-07-05T00:24:35;921.55;;;867.33;;
16916;SDS011;8575;52.418;13.492;2022-07-05T00:24:57;951.40;;;895.38;;
16916;SDS011;8575;52.418;13.492;2022-07-05T00:25:18;941.85;;;886.25;;
16916;SDS011;8575;52.418;13.492;2022-07-05T00:25:39;949.25;;;893.25;;
16916;SDS011;8575;52.418;13.492;2022-07-05T00:26:00;936.30;;;881.17;;
16916;SDS011;8575;52.418;13.492;2022-07-05T00:26:22;934.58;;;879.53;;
16916;SDS011;8575;52.418;13.492;2022-07-05T00:26:44;935.53;;;880.42;;
16916;SDS011;8575;52.418;13.492;2022-07-05T00:27:05;935.55;;;880.35;;
16916;SDS011;8575;52.418;13.492;2022-07-05T00:27:26;945.72;;;889.97;;
16916;SDS011;8575;52.418;13.492;2022-07-05T00:27:47;935.58;;;880.38;;
16916;SDS011;8575;52.418;13.492;2022-07-05T00:28:14;915.33;;;861.42;;
16916;SDS011;8575;52.418;13.492;2022-07-05T00:28:36;937.63;;;882.38;;
16916;SDS011;8575;52.418;13.492;2022-07-05T00:28:57;931.83;;;876.95;;
16916;SDS011;8575;52.418;13.492;2022-07-05T00:29:18;931.97;;;877.08;;
16916;SDS011;8575;52.418;13.492;2022-07-05T00:29:40;971.95;;;914.67;;
16916;SDS011;8575;52.418;13.492;2022-07-05T00:30:02;974.65;;;917.20;;
16916;SDS011;8575;52.418;13.492;2022-07-05T00:30:24;940.97;;;885.55;;
16916;SDS011;8575;52.418;13.492;2022-07-05T00:30:45;916.80;;;862.72;;
16916;SDS011;8575;52.418;13.492;2022-07-05T00:31:07;923.45;;;869.05;;
16916;SDS011;8575;52.418;13.492;2022-07-05T00:31:29;927.92;;;873.30;;
16916;SDS011;8575;52.418;13.492;2022-07-05T00:31:50;906.75;;;853.33;;
16916;SDS011;8575;52.418;13.492;2022-07-05T00:32:11;910.50;;;856.85;;
16916;SDS011;8575;52.418;13.492;2022-07-05T00:32:34;913.92;;;860.08;;
16916;SDS011;8575;52.418;13.492;2022-07-05T00:32:55;915.95;;;862.05;;
16916;SDS011;8575;52.418;13.492;2022-07-05T00:33:16;923.67;;;869.33;;
16916;SDS011;8575;52.418;13.492;2022-07-05T00:33:38;919.08;;;864.97;;
16916;SDS011;8575;52.418;13.492;2022-07-05T00:34:00;919.85;;;865.65;;
16916;SDS011;8575;52.418;13.492;2022-07-05T00:34:21;924.63;;;870.17;;
16916;SDS011;8575;52.418;13.492;2022-07-05T00:34:42;926.85;;;872.22;;
16916;SDS011;8575;52.418;13.492;2022-07-05T00:35:05;936.95;;;881.70;;
16916;SDS011;8575;52.418;13.492;2022-07-05T00:35:27;933.75;;;878.85;;
16916;SDS011;8575;52.418;13.492;2022-07-05T00:35:48;938.65;;;883.45;;
16916;SDS011;8575;52.418;13.492;2022-07-05T00:36:09;931.73;;;876.83;;
16916;SDS011;8575;52.418;13.492;2022-07-05T00:36:31;936.78;;;881.58;;
16916;SDS011;8575;52.418;13.492;2022-07-05T00:36:53;955.58;;;899.28;;
16916;SDS011;8575;52.418;13.492;2022-07-05T00:37:14;963.10;;;906.20;;
16916;SDS011;8575;52.418;13.492;2022-07-05T00:37:37;948.45;;;892.50;;
16916;SDS011;8575;52.418;13.492;2022-07-05T00:37:59;941.17;;;885.67;;
16916;SDS011;8575;52.418;13.492;2022-07-05T00:38:20;933.00;;;878.00;;
16916;SDS011;8575;52.418;13.492;2022-07-05T00:38:41;949.78;;;893.80;;
16916;SDS011;8575;52.418;13.492;2022-07-05T00:39:03;953.78;;;897.63;;
16916;SDS011;8575;52.418;13.492;2022-07-05T00:39:25;950.67;;;894.70;;
16916;SDS011;8575;52.418;13.492;2022-07-05T00:39:47;949.40;;;893.55;;
16916;SDS011;8575;52.418;13.492;2022-07-05T00:40:08;959.28;;;902.83;;
16916;SDS011;8575;52.418;13.492;2022-07-05T00:40:30;966.45;;;909.55;;
16916;SDS011;8575;52.418;13.492;2022-07-05T00:40:52;969.80;;;912.75;;
16916;SDS011;8575;52.418;13.492;2022-07-05T00:41:14;972.47;;;915.22;;
16916;SDS011;8575;52.418;13.492;2022-07-05T00:41:35;968.08;;;911.00;;
16916;SDS011;8575;52.418;13.492;2022-07-05T00:41:57;966.75;;;909.80;;
16916;SDS011;8575;52.418;13.492;2022-07-05T00:42:21;968.67;;;911.60;;
16916;SDS011;8575;52.418;13.492;2022-07-05T00:42:42;963.28;;;906.53;;
16916;SDS011;8575;52.418;13.492;2022-07-05T00:43:04;970.45;;;913.25;;
16916;SDS011;8575;52.418;13.492;2022-07-05T00:43:26;974.92;;;917.42;;
16916;SDS011;8575;52.418;13.492;2022-07-05T00:43:51;997.55;;;938.75;;
16916;SDS011;8575;52.418;13.492;2022-07-05T00:44:13;1020.85;;;960.58;;
16916;SDS011;8575;52.418;13.492;2022-07-05T00:44:36;1016.88;;;956.90;;
16916;SDS011;8575;52.418;13.492;2022-07-05T00:45:00;1012.40;;;952.72;;
16916;SDS011;8575;52.418;13.492;2022-07-05T00:45:23;1014.35;;;954.55;;
16916;SDS011;8575;52.418;13.492;2022-07-05T00:45:45;1023.63;;;963.30;;
16916;SDS011;8575;52.418;13.492;2022-07-05T00:46:07;1033.63;;;972.72;;
16916;SDS011;8575;52.418;13.492;2022-07-05T00:46:28;1040.63;;;979.20;;
16916;SDS011;8575;52.418;13.492;2022-07-05T00:46:50;1024.88;;;964.42;;
16916;SDS011;8575;52.418;13.492;2022-07-05T00:47:11;1019.90;;;959.58;;
16916;SDS011;8575;52.418;13.492;2022-07-05T00:47:34;1017.80;;;957.70;;
16916;SDS011;8575;52.418;13.492;2022-07-05T00:47:55;1029.45;;;968.72;;
16916;SDS011;8575;52.418;13.492;2022-07-05T00:48:17;1047.72;;;985.90;;
16916;SDS011;8575;52.418;13.492;2022-07-05T00:48:38;1063.10;;;999.90;;
16916;SDS011;8575;52.418;13.492;2022-07-05T00:49:00;1088.03;;;999.90;;
16916;SDS011;8575;52.418;13.492;2022-07-05T00:49:22;1112.82;;;999.90;;
16916;SDS011;8575;52.418;13.492;2022-07-05T00:49:43;1119.55;;;999.90;;
16916;SDS011;8575;52.418;13.492;2022-07-05T00:50:05;1129.35;;;999.90;;
16916;SDS011;8575;52.418;13.492;2022-07-05T00:50:26;1131.65;;;999.90;;
16916;SDS011;8575;52.418;13.492;2022-07-05T00:50:49;1132.45;;;999.90;;
16916;SDS011;8575;52.418;13.492;2022-07-05T00:51:11;1134.30;;;999.90;;
16916;SDS011;8575;52.418;13.492;2022-07-05T00:51:33;1133.40;;;999.90;;
16916;SDS011;8575;52.418;13.492;2022-07-05T00:51:56;1133.15;;;999.90;;
16916;SDS011;8575;52.418;13.492;2022-07-05T00:52:18;1133.20;;;999.90;;
16916;SDS011;8575;52.418;13.492;2022-07-05T00:52:41;1133.30;;;999.90;;
16916;SDS011;8575;52.418;13.492;2022-07-05T00:53:03;1133.65;;;999.90;;
16916;SDS011;8575;52.418;13.492;2022-07-05T00:53:24;1133.28;;;999.90;;
16916;SDS011;8575;52.418;13.492;2022-07-05T00:53:45;1133.40;;;999.90;;
16916;SDS011;8575;52.418;13.492;2022-07-05T00:54:07;1131.65;;;999.90;;
16916;SDS011;8575;52.418;13.492;2022-07-05T00:54:29;1132.13;;;999.90;;
16916;SDS011;8575;52.418;13.492;2022-07-05T00:54:53;1132.95;;;999.90;;
16916;SDS011;8575;52.418;13.492;2022-07-05T00:55:15;1136.07;;;999.90;;
16916;SDS011;8575;52.418;13.492;2022-07-05T00:55:36;1131.63;;;999.90;;
16916;SDS011;8575;52.418;13.492;2022-07-05T00:55:58;1131.35;;;999.90;;
16916;SDS011;8575;52.418;13.492;2022-07-05T00:56:19;1128.67;;;999.90;;
16916;SDS011;8575;52.418;13.492;2022-07-05T00:56:41;1127.05;;;999.90;;
16916;SDS011;8575;52.418;13.492;2022-07-05T00:57:04;1130.50;;;999.90;;
16916;SDS011;8575;52.418;13.492;2022-07-05T00:57:26;1131.72;;;999.90;;
16916;SDS011;8575;52.418;13.492;2022-07-05T00:57:48;1129.15;;;999.90;;
16916;SDS011;8575;52.418;13.492;2022-07-05T00:58:14;1125.10;;;999.90;;
16916;SDS011;8575;52.418;13.492;2022-07-05T00:58:35;1129.70;;;999.90;;
16916;SDS011;8575;52.418;13.492;2022-07-05T00:58:56;1131.47;;;999.90;;
16916;SDS011;8575;52.418;13.492;2022-07-05T00:59:19;1130.60;;;999.90;;
16916;SDS011;8575;52.418;13.492;2022-07-05T00:59:40;1125.18;;;999.90;;
16916;SDS011;8575;52.418;13.492;2022-07-05T01:00:02;1117.45;;;999.90;;
16916;SDS011;8575;52.418;13.492;2022-07-05T01:00:26;1123.45;;;999.90;;
16916;SDS011;8575;52.418;13.492;2022-07-05T01:00:47;1089.57;;;999.90;;
16916;SDS011;8575;52.418;13.492;2022-07-05T01:01:09;1071.82;;;999.90;;
16916;SDS011;8575;52.418;13.492;2022-07-05T01:01:30;1089.82;;;999.90;;
16916;SDS011;8575;52.418;13.492;2022-07-05T01:01:52;1115.32;;;999.90;;
16916;SDS011;8575;52.418;13.492;2022-07-05T01:02:13;1116.43;;;999.90;;
16916;SDS011;8575;52.418;13.492;2022-07-05T01:02:35;1113.90;;;999.90;;
16916;SDS011;8575;52.418;13.492;2022-07-05T01:02:56;1110.28;;;999.90;;
16916;SDS011;8575;52.418;13.492;2022-07-05T01:03:18;1112.68;;;999.90;;
16916;SDS011;8575;52.418;13.492;2022-07-05T01:03:39;1116.28;;;999.90;;
16916;SDS011;8575;52.418;13.492;2022-07-05T01:04:01;1123.78;;;999.90;;
16916;SDS011;8575;52.418;13.492;2022-07-05T01:04:22;1124.55;;;999.90;;
16916;SDS011;8575;52.418;13.492;2022-07-05T01:04:43;1124.85;;;999.90;;
16916;SDS011;8575;52.418;13.492;2022-07-05T01:05:05;1128.53;;;999.90;;
16916;SDS011;8575;52.418;13.492;2022-07-05T01:05:27;1127.75;;;999.90;;
16916;SDS011;8575;52.418;13.492;2022-07-05T01:05:49;1128.82;;;999.90;;
16916;SDS011;8575;52.418;13.492;2022-07-05T01:06:14;1118.93;;;999.90;;
16916;SDS011;8575;52.418;13.492;2022-07-05T01:06:36;1122.60;;;999.90;;
16916;SDS011;8575;52.418;13.492;2022-07-05T01:06:58;1122.63;;;999.90;;
16916;SDS011;8575;52.418;13.492;2022-07-05T01:07:20;1124.25;;;999.90;;
16916;SDS011;8575;52.418;13.492;2022-07-05T01:07:45;1125.70;;;999.90;;
16916;SDS011;8575;52.418;13.492;2022-07-05T01:08:06;1123.40;;;999.90;;
16916;SDS011;8575;52.418;13.492;2022-07-05T01:08:28;1124.82;;;999.90;;
16916;SDS011;8575;52.418;13.492;2022-07-05T01:08:49;1126.57;;;999.90;;
16916;SDS011;8575;52.418;13.492;2022-07-05T01:09:12;1125.95;;;999.90;;
16916;SDS011;8575;52.418;13.492;2022-07-05T01:09:44;1128.90;;;999.90;;
16916;SDS011;8575;52.418;13.492;2022-07-05T01:10:06;1127.97;;;999.90;;
16916;SDS011;8575;52.418;13.492;2022-07-05T01:10:28;1129.53;;;999.90;;
16916;SDS011;8575;52.418;13.492;2022-07-05T01:10:50;1132.25;;;999.90;;
16916;SDS011;8575;52.418;13.492;2022-07-05T01:11:13;1127.00;;;999.90;;
16916;SDS011;8575;52.418;13.492;2022-07-05T01:11:35;1128.20;;;999.90;;
16916;SDS011;8575;52.418;13.492;2022-07-05T01:11:56;1131.30;;;999.90;;
16916;SDS011;8575;52.418;13.492;2022-07-05T01:12:17;1129.82;;;999.90;;
16916;SDS011;8575;52.418;13.492;2022-07-05T01:12:45;1130.50;;;999.90;;
16916;SDS011;8575;52.418;13.492;2022-07-05T01:13:07;1130.25;;;999.90;;
16916;SDS011;8575;52.418;13.492;2022-07-05T01:13:28;1130.35;;;999.90;;
16916;SDS011;8575;52.418;13.492;2022-07-05T01:13:50;1129.17;;;999.90;;
16916;SDS011;8575;52.418;13.492;2022-07-05T01:14:13;1129.20;;;999.90;;
16916;SDS011;8575;52.418;13.492;2022-07-05T01:14:35;1129.20;;;999.90;;
16916;SDS011;8575;52.418;13.492;2022-07-05T01:14:57;1129.53;;;999.90;;
16916;SDS011;8575;52.418;13.492;2022-07-05T01:15:19;1123.85;;;999.90;;
16916;SDS011;8575;52.418;13.492;2022-07-05T01:15:42;1115.90;;;999.90;;
16916;SDS011;8575;52.418;13.492;2022-07-05T01:16:03;1127.45;;;999.90;;
16916;SDS011;8575;52.418;13.492;2022-07-05T01:16:25;1129.60;;;999.90;;
16916;SDS011;8575;52.418;13.492;2022-07-05T01:16:47;1130.28;;;999.90;;
16916;SDS011;8575;52.418;13.492;2022-07-05T01:17:09;1131.95;;;999.90;;
16916;SDS011;8575;52.418;13.492;2022-07-05T01:17:30;1131.85;;;999.90;;
16916;SDS011;8575;52.418;13.492;2022-07-05T01:17:52;1132.78;;;999.90;;
16916;SDS011;8575;52.418;13.492;2022-07-05T01:18:14;1118.18;;;999.90;;
16916;SDS011;8575;52.418;13.492;2022-07-05T01:18:35;1110.25;;;999.90;;
16916;SDS011;8575;52.418;13.492;2022-07-05T01:18:57;1116.78;;;999.90;;
16916;SDS011;8575;52.418;13.492;2022-07-05T01:19:18;1122.28;;;999.90;;
16916;SDS011;8575;52.418;13.492;2022-07-05T01:19:41;1126.57;;;999.90;;
16916;SDS011;8575;52.418;13.492;2022-07-05T01:20:04;1130.68;;;999.90;;
16916;SDS011;8575;52.418;13.492;2022-07-05T01:20:26;1132.15;;;999.90;;
16916;SDS011;8575;52.418;13.492;2022-07-05T01:20:48;1127.28;;;999.90;;
16916;SDS011;8575;52.418;13.492;2022-07-05T01:21:09;1127.45;;;999.90;;
16916;SDS011;8575;52.418;13.492;2022-07-05T01:21:35;1091.35;;;999.90;;
16916;SDS011;8575;52.418;13.492;2022-07-05T01:22:01;1109.82;;;999.90;;
16916;SDS011;8575;52.418;13.492;2022-07-05T01:22:25;1118.22;;;999.90;;
16916;SDS011;8575;52.418;13.492;2022-07-05T01:22:51;1117.82;;;999.90;;
16916;SDS011;8575;52.418;13.492;2022-07-05T01:23:14;1125.47;;;999.90;;
16916;SDS011;8575;52.418;13.492;2022-07-05T01:23:35;1128.05;;;999.90;;
16916;SDS011;8575;52.418;13.492;2022-07-05T01:23:56;1119.47;;;999.90;;
16916;SDS011;8575;52.418;13.492;2022-07-05T01:24:18;1127.40;;;999.90;;
16916;SDS011;8575;52.418;13.492;2022-07-05T01:24:41;1132.55;;;999.90;;
16916;SDS011;8575;52.418;13.492;2022-07-05T01:25:02;1133.03;;;999.90;;
16916;SDS011;8575;52.418;13.492;2022-07-05T01:25:24;1130.50;;;999.90;;
16916;SDS011;8575;52.418;13.492;2022-07-05T01:25:47;1133.18;;;999.90;;
16916;SDS011;8575;52.418;13.492;2022-07-05T01:26:09;1131.57;;;999.90;;
16916;SDS011;8575;52.418;13.492;2022-07-05T01:26:30;1126.65;;;999.90;;
16916;SDS011;8575;52.418;13.492;2022-07-05T01:26:52;1129.13;;;999.90;;
16916;SDS011;8575;52.418;13.492;2022-07-05T01:27:14;1125.68;;;999.90;;
16916;SDS011;8575;52.418;13.492;2022-07-05T01:27:35;1122.55;;;999.90;;
16916;SDS011;8575;52.418;13.492;2022-07-05T01:27:58;1131.00;;;999.90;;
16916;SDS011;8575;52.418;13.492;2022-07-05T01:28:20;1119.30;;;999.90;;
16916;SDS011;8575;52.418;13.492;2022-07-05T01:28:41;1114.43;;;999.90;;
16916;SDS011;8575;52.418;13.492;2022-07-05T01:29:03;1112.93;;;999.90;;
16916;SDS011;8575;52.418;13.492;2022-07-05T01:29:25;1111.63;;;999.90;;
16916;SDS011;8575;52.418;13.492;2022-07-05T01:29:46;1116.78;;;999.90;;
16916;SDS011;8575;52.418;13.492;2022-07-05T01:30:07;1116.85;;;999.90;;
16916;SDS011;8575;52.418;13.492;2022-07-05T01:30:30;1116.28;;;999.90;;
16916;SDS011;8575;52.418;13.492;2022-07-05T01:30:55;1107.40;;;999.90;;
16916;SDS011;8575;52.418;13.492;2022-07-05T01:31:16;1100.85;;;999.90;;
16916;SDS011;8575;52.418;13.492;2022-07-05T01:31:37;1100.60;;;999.90;;
16916;SDS011;8575;52.418;13.492;2022-07-05T01:31:59;1109.57;;;999.90;;
16916;SDS011;8575;52.418;13.492;2022-07-05T01:32:24;1135.97;;;999.90;;
16916;SDS011;8575;52.418;13.492;2022-07-05T01:32:45;1134.35;;;999.90;;
16916;SDS011;8575;52.418;13.492;2022-07-05T01:33:07;1133.03;;;999.90;;
16916;SDS011;8575;52.418;13.492;2022-07-05T01:33:29;1133.45;;;999.90;;
16916;SDS011;8575;52.418;13.492;2022-07-05T01:33:52;1133.55;;;999.90;;
16916;SDS011;8575;52.418;13.492;2022-07-05T01:34:13;1134.80;;;999.90;;
16916;SDS011;8575;52.418;13.492;2022-07-05T01:34:36;1135.00;;;999.90;;
16916;SDS011;8575;52.418;13.492;2022-07-05T01:34:58;1134.63;;;999.90;;
16916;SDS011;8575;52.418;13.492;2022-07-05T01:35:20;1133.00;;;999.90;;
16916;SDS011;8575;52.418;13.492;2022-07-05T01:35:41;1127.47;;;999.90;;
16916;SDS011;8575;52.418;13.492;2022-07-05T01:36:03;1119.45;;;999.90;;
16916;SDS011;8575;52.418;13.492;2022-07-05T01:36:24;1130.15;;;999.90;;
16916;SDS011;8575;52.418;13.492;2022-07-05T01:36:46;1132.88;;;999.90;;
16916;SDS011;8575;52.418;13.492;2022-07-05T01:37:08;1135.45;;;999.90;;
16916;SDS011;8575;52.418;13.492;2022-07-05T01:37:30;1131.75;;;999.90;;
16916;SDS011;8575;52.418;13.492;2022-07-05T01:37:52;1132.97;;;999.90;;
16916;SDS011;8575;52.418;13.492;2022-07-05T01:38:15;1132.13;;;999.90;;
16916;SDS011;8575;52.418;13.492;2022-07-05T01:38:37;1133.65;;;999.90;;
16916;SDS011;8575;52.418;13.492;2022-07-05T01:38:59;1133.57;;;999.90;;
16916;SDS011;8575;52.418;13.492;2022-07-05T01:39:20;1127.45;;;999.90;;
16916;SDS011;8575;52.418;13.492;2022-07-05T01:39:42;1122.68;;;999.90;;
16916;SDS011;8575;52.418;13.492;2022-07-05T01:40:05;1119.03;;;999.90;;
16916;SDS011;8575;52.418;13.492;2022-07-05T01:40:27;1100.20;;;999.90;;
16916;SDS011;8575;52.418;13.492;2022-07-05T01:40:49;1100.95;;;999.90;;
16916;SDS011;8575;52.418;13.492;2022-07-05T01:41:12;1093.95;;;999.90;;
16916;SDS011;8575;52.418;13.492;2022-07-05T01:41:33;1086.43;;;999.90;;
16916;SDS011;8575;52.418;13.492;2022-07-05T01:41:55;1080.20;;;999.90;;
16916;SDS011;8575;52.418;13.492;2022-07-05T01:42:16;1086.68;;;999.90;;
16916;SDS011;8575;52.418;13.492;2022-07-05T01:42:38;1090.50;;;999.90;;
16916;SDS011;8575;52.418;13.492;2022-07-05T01:43:00;1086.50;;;999.90;;
16916;SDS011;8575;52.418;13.492;2022-07-05T01:43:23;1093.30;;;999.90;;
16916;SDS011;8575;52.418;13.492;2022-07-05T01:43:45;1084.75;;;999.90;;
16916;SDS011;8575;52.418;13.492;2022-07-05T01:44:06;1092.78;;;999.90;;
16916;SDS011;8575;52.418;13.492;2022-07-05T01:44:29;1094.45;;;999.90;;
16916;SDS011;8575;52.418;13.492;2022-07-05T01:44:51;1087.20;;;999.90;;
16916;SDS011;8575;52.418;13.492;2022-07-05T01:45:12;1094.13;;;999.90;;
16916;SDS011;8575;52.418;13.492;2022-07-05T01:45:53;1090.18;;;999.90;;
16916;SDS011;8575;52.418;13.492;2022-07-05T01:46:16;1085.80;;;999.90;;
16916;SDS011;8575;52.418;13.492;2022-07-05T01:46:50;1082.57;;;999.90;;
16916;SDS011;8575;52.418;13.492;2022-07-05T01:47:12;1083.07;;;999.90;;
16916;SDS011;8575;52.418;13.492;2022-07-05T01:47:35;1085.63;;;999.90;;
16916;SDS011;8575;52.418;13.492;2022-07-05T01:47:57;1076.45;;;999.90;;
16916;SDS011;8575;52.418;13.492;2022-07-05T01:48:19;1077.88;;;999.90;;
16916;SDS011;8575;52.418;13.492;2022-07-05T01:48:40;1079.70;;;999.90;;
16916;SDS011;8575;52.418;13.492;2022-07-05T01:49:04;1095.15;;;999.90;;
16916;SDS011;8575;52.418;13.492;2022-07-05T01:49:26;1097.13;;;999.90;;
16916;SDS011;8575;52.418;13.492;2022-07-05T01:49:49;1104.50;;;999.90;;
16916;SDS011;8575;52.418;13.492;2022-07-05T01:50:13;1109.32;;;999.90;;
16916;SDS011;8575;52.418;13.492;2022-07-05T01:50:38;1113.30;;;999.90;;
16916;SDS011;8575;52.418;13.492;2022-07-05T01:51:02;1118.72;;;999.90;;
16916;SDS011;8575;52.418;13.492;2022-07-05T01:51:25;1120.03;;;999.90;;
16916;SDS011;8575;52.418;13.492;2022-07-05T01:51:51;1121.57;;;999.90;;
16916;SDS011;8575;52.418;13.492;2022-07-05T01:52:16;1119.60;;;999.90;;
16916;SDS011;8575;52.418;13.492;2022-07-05T01:52:42;1117.05;;;999.90;;
16916;SDS011;8575;52.418;13.492;2022-07-05T01:53:06;1111.15;;;999.90;;
16916;SDS011;8575;52.418;13.492;2022-07-05T01:53:30;1122.53;;;999.90;;
16916;SDS011;8575;52.418;13.492;2022-07-05T01:53:53;1131.80;;;999.90;;
16916;SDS011;8575;52.418;13.492;2022-07-05T01:54:15;1131.97;;;999.90;;
16916;SDS011;8575;52.418;13.492;2022-07-05T01:54:36;1137.72;;;999.90;;
16916;SDS011;8575;52.418;13.492;2022-07-05T01:54:58;1133.38;;;999.90;;
16916;SDS011;8575;52.418;13.492;2022-07-05T01:55:21;1121.97;;;999.90;;
16916;SDS011;8575;52.418;13.492;2022-07-05T01:55:43;1120.00;;;999.90;;
16916;SDS011;8575;52.418;13.492;2022-07-05T01:56:04;1118.40;;;999.90;;
16916;SDS011;8575;52.418;13.492;2022-07-05T01:56:26;1126.10;;;999.90;;
16916;SDS011;8575;52.418;13.492;2022-07-05T01:56:47;1135.50;;;999.90;;
16916;SDS011;8575;52.418;13.492;2022-07-05T01:57:09;1139.93;;;999.90;;
16916;SDS011;8575;52.418;13.492;2022-07-05T01:57:31;1136.55;;;999.90;;
16916;SDS011;8575;52.418;13.492;2022-07-05T01:57:52;1135.80;;;999.90;;
16916;SDS011;8575;52.418;13.492;2022-07-05T01:58:14;1123.57;;;999.90;;
16916;SDS011;8575;52.418;13.492;2022-07-05T01:58:36;1121.88;;;999.90;;
16916;SDS011;8575;52.418;13.492;2022-07-05T01:58:58;1135.65;;;999.90;;
16916;SDS011;8575;52.418;13.492;2022-07-05T01:59:19;1134.13;;;999.90;;
16916;SDS011;8575;52.418;13.492;2022-07-05T01:59:40;1127.03;;;999.90;;
16916;SDS011;8575;52.418;13.492;2022-07-05T02:00:03;1097.28;;;999.90;;
16916;SDS011;8575;52.418;13.492;2022-07-05T02:00:41;1119.25;;;999.90;;
16916;SDS011;8575;52.418;13.492;2022-07-05T02:01:03;1134.55;;;999.90;;
16916;SDS011;8575;52.418;13.492;2022-07-05T02:01:31;1139.53;;;999.90;;
16916;SDS011;8575;52.418;13.492;2022-07-05T02:01:54;1132.55;;;999.90;;
16916;SDS011;8575;52.418;13.492;2022-07-05T02:02:15;1125.18;;;999.90;;
16916;SDS011;8575;52.418;13.492;2022-07-05T02:02:39;1114.00;;;999.90;;
16916;SDS011;8575;52.418;13.492;2022-07-05T02:03:01;1121.38;;;999.90;;
16916;SDS011;8575;52.418;13.492;2022-07-05T02:03:25;1132.00;;;999.90;;
16916;SDS011;8575;52.418;13.492;2022-07-05T02:03:46;1130.28;;;999.90;;
16916;SDS011;8575;52.418;13.492;2022-07-05T02:04:09;1128.07;;;999.90;;
16916;SDS011;8575;52.418;13.492;2022-07-05T02:04:31;1129.47;;;999.90;;
16916;SDS011;8575;52.418;13.492;2022-07-05T02:04:54;1126.50;;;999.90;;
16916;SDS011;8575;52.418;13.492;2022-07-05T02:05:16;1125.90;;;999.90;;
16916;SDS011;8575;52.418;13.492;2022-07-05T02:05:38;1135.15;;;999.90;;